sensor_id;sensor_type;location;lat;lon;timestamp;temperature;humidity
31675;DHT22;18276;45.520;11.018;2022-11-09T00:00:51;13.40;79.20
31675;DHT22;18276;45.520;11.018;2022-11-09T00:03:19;13.40;79.20
31675;DHT22;18276;45.520;11.018;2022-11-09T00:05:56;13.40;79.20
31675;DHT22;18276;45.520;11.018;2022-11-09T00:08:24;13.50;79.10
31675;DHT22;18276;45.520;11.018;2022-11-09T00:10:52;13.50;79.10
31675;DHT22;18276;45.520;11.018;2022-11-09T00:13:19;13.50;79.10
31675;DHT22;18276;45.520;11.018;2022-11-09T00:15:47;13.40;79.10
31675;DHT22;18276;45.520;11.018;2022-11-09T00:18:14;13.40;79.20
31675;DHT22;18276;45.520;11.018;2022-11-09T00:20:41;13.40;79.40
31675;DHT22;18276;45.520;11.018;2022-11-09T00:23:15;13.40;79.60
31675;DHT22;18276;45.520;11.018;2022-11-09T00:25:43;13.50;79.80
31675;DHT22;18276;45.520;11.018;2022-11-09T00:28:11;13.40;80.00
31675;DHT22;18276;45.520;11.018;2022-11-09T00:30:38;13.40;80.20
31675;DHT22;18276;45.520;11.018;2022-11-09T00:33:06;13.30;80.40
31675;DHT22;18276;45.520;11.018;2022-11-09T00:35:37;13.30;80.40
31675;DHT22;18276;45.520;11.018;2022-11-09T00:38:04;13.30;80.50
31675;DHT22;18276;45.520;11.018;2022-11-09T00:40:31;13.40;80.40
31675;DHT22;18276;45.520;11.018;2022-11-09T00:42:59;13.30;80.40
31675;DHT22;18276;45.520;11.018;2022-11-09T00:45:26;13.30;80.40
31675;DHT22;18276;45.520;11.018;2022-11-09T00:47:53;13.30;80.40
31675;DHT22;18276;45.520;11.018;2022-11-09T00:50:21;13.30;80.40
31675;DHT22;18276;45.520;11.018;2022-11-09T00:52:49;13.30;80.60
31675;DHT22;18276;45.520;11.018;2022-11-09T00:55:16;13.30;80.70
31675;DHT22;18276;45.520;11.018;2022-11-09T00:57:50;13.40;80.80
31675;DHT22;18276;45.520;11.018;2022-11-09T01:00:21;13.30;80.90
31675;DHT22;18276;45.520;11.018;2022-11-09T01:02:51;13.30;81.00
31675;DHT22;18276;45.520;11.018;2022-11-09T01:05:18;13.30;81.00
31675;DHT22;18276;45.520;11.018;2022-11-09T01:07:48;13.30;81.00
31675;DHT22;18276;45.520;11.018;2022-11-09T01:10:15;13.30;81.00
31675;DHT22;18276;45.520;11.018;2022-11-09T01:12:45;13.30;81.10
31675;DHT22;18276;45.520;11.018;2022-11-09T01:15:13;13.30;81.30
31675;DHT22;18276;45.520;11.018;2022-11-09T01:17:40;13.30;81.40
31675;DHT22;18276;45.520;11.018;2022-11-09T01:20:08;13.30;81.40
31675;DHT22;18276;45.520;11.018;2022-11-09T01:22:35;13.30;81.40
31675;DHT22;18276;45.520;11.018;2022-11-09T01:25:02;13.30;81.50
31675;DHT22;18276;45.520;11.018;2022-11-09T01:27:30;13.30;81.60
31675;DHT22;18276;45.520;11.018;2022-11-09T01:29:57;13.30;81.70
31675;DHT22;18276;45.520;11.018;2022-11-09T01:32:25;13.30;81.70
31675;DHT22;18276;45.520;11.018;2022-11-09T01:34:52;13.30;81.80
31675;DHT22;18276;45.520;11.018;2022-11-09T01:37:19;13.30;81.90
31675;DHT22;18276;45.520;11.018;2022-11-09T01:39:46;13.30;82.00
31675;DHT22;18276;45.520;11.018;2022-11-09T01:42:14;13.20;82.10
31675;DHT22;18276;45.520;11.018;2022-11-09T01:44:41;13.30;82.20
31675;DHT22;18276;45.520;11.018;2022-11-09T01:47:19;13.30;82.40
31675;DHT22;18276;45.520;11.018;2022-11-09T01:49:56;13.30;82.40
31675;DHT22;18276;45.520;11.018;2022-11-09T01:52:37;13.30;82.40
31675;DHT22;18276;45.520;11.018;2022-11-09T01:55:14;13.30;82.40
31675;DHT22;18276;45.520;11.018;2022-11-09T01:57:46;13.30;82.40
31675;DHT22;18276;45.520;11.018;2022-11-09T02:00:16;13.30;82.30
31675;DHT22;18276;45.520;11.018;2022-11-09T02:03:01;13.30;82.20
31675;DHT22;18276;45.520;11.018;2022-11-09T02:05:32;13.30;82.30
31675;DHT22;18276;45.520;11.018;2022-11-09T02:08:02;13.30;82.40
31675;DHT22;18276;45.520;11.018;2022-11-09T02:11:08;13.30;82.50
31675;DHT22;18276;45.520;11.018;2022-11-09T02:13:42;13.20;82.70
31675;DHT22;18276;45.520;11.018;2022-11-09T02:16:11;13.20;82.80
31675;DHT22;18276;45.520;11.018;2022-11-09T02:18:49;13.20;82.70
31675;DHT22;18276;45.520;11.018;2022-11-09T02:21:18;13.20;82.80
31675;DHT22;18276;45.520;11.018;2022-11-09T02:23:46;13.20;82.80
31675;DHT22;18276;45.520;11.018;2022-11-09T02:26:21;13.20;82.80
31675;DHT22;18276;45.520;11.018;2022-11-09T02:28:52;13.10;82.80
31675;DHT22;18276;45.520;11.018;2022-11-09T02:31:24;13.10;83.00
31675;DHT22;18276;45.520;11.018;2022-11-09T02:34:01;13.00;83.10
31675;DHT22;18276;45.520;11.018;2022-11-09T02:36:28;13.00;83.30
31675;DHT22;18276;45.520;11.018;2022-11-09T02:38:56;12.90;83.40
31675;DHT22;18276;45.520;11.018;2022-11-09T02:41:24;12.90;83.80
31675;DHT22;18276;45.520;11.018;2022-11-09T02:43:53;12.90;84.10
31675;DHT22;18276;45.520;11.018;2022-11-09T02:46:23;12.80;84.40
31675;DHT22;18276;45.520;11.018;2022-11-09T02:48:51;12.80;84.60
31675;DHT22;18276;45.520;11.018;2022-11-09T02:51:18;12.80;84.80
31675;DHT22;18276;45.520;11.018;2022-11-09T02:53:45;12.70;84.80
31675;DHT22;18276;45.520;11.018;2022-11-09T02:56:12;12.80;85.00
31675;DHT22;18276;45.520;11.018;2022-11-09T02:58:40;12.80;85.00
31675;DHT22;18276;45.520;11.018;2022-11-09T03:01:07;12.90;85.00
31675;DHT22;18276;45.520;11.018;2022-11-09T03:03:35;12.90;85.00
31675;DHT22;18276;45.520;11.018;2022-11-09T03:06:03;12.90;85.10
31675;DHT22;18276;45.520;11.018;2022-11-09T03:08:31;12.90;85.10
31675;DHT22;18276;45.520;11.018;2022-11-09T03:10:59;13.00;85.20
31675;DHT22;18276;45.520;11.018;2022-11-09T03:13:26;13.00;85.20
31675;DHT22;18276;45.520;11.018;2022-11-09T03:15:55;13.00;85.20
31675;DHT22;18276;45.520;11.018;2022-11-09T03:18:23;13.00;85.30
31675;DHT22;18276;45.520;11.018;2022-11-09T03:20:50;13.10;85.30
31675;DHT22;18276;45.520;11.018;2022-11-09T03:23:17;13.10;85.20
31675;DHT22;18276;45.520;11.018;2022-11-09T03:25:45;13.10;85.10
31675;DHT22;18276;45.520;11.018;2022-11-09T03:28:13;13.10;85.10
31675;DHT22;18276;45.520;11.018;2022-11-09T03:30:40;13.10;85.20
31675;DHT22;18276;45.520;11.018;2022-11-09T03:33:07;13.10;85.30
31675;DHT22;18276;45.520;11.018;2022-11-09T03:35:39;13.10;85.30
31675;DHT22;18276;45.520;11.018;2022-11-09T03:38:07;13.10;85.30
31675;DHT22;18276;45.520;11.018;2022-11-09T03:40:35;13.10;85.20
31675;DHT22;18276;45.520;11.018;2022-11-09T03:43:03;13.10;85.20
31675;DHT22;18276;45.520;11.018;2022-11-09T03:45:30;13.10;85.50
31675;DHT22;18276;45.520;11.018;2022-11-09T03:47:57;13.10;85.70
31675;DHT22;18276;45.520;11.018;2022-11-09T03:50:27;13.00;85.70
31675;DHT22;18276;45.520;11.018;2022-11-09T03:52:55;13.00;85.90
31675;DHT22;18276;45.520;11.018;2022-11-09T03:55:23;13.00;86.00
31675;DHT22;18276;45.520;11.018;2022-11-09T03:57:51;13.10;86.10
31675;DHT22;18276;45.520;11.018;2022-11-09T04:00:19;13.10;86.20
31675;DHT22;18276;45.520;11.018;2022-11-09T04:02:48;13.10;86.20
31675;DHT22;18276;45.520;11.018;2022-11-09T04:05:16;13.10;86.10
31675;DHT22;18276;45.520;11.018;2022-11-09T04:07:50;13.10;86.00
31675;DHT22;18276;45.520;11.018;2022-11-09T04:10:18;13.20;86.10
31675;DHT22;18276;45.520;11.018;2022-11-09T04:12:45;13.10;86.00
31675;DHT22;18276;45.520;11.018;2022-11-09T04:15:13;13.20;86.00
31675;DHT22;18276;45.520;11.018;2022-11-09T04:17:41;13.20;85.90
31675;DHT22;18276;45.520;11.018;2022-11-09T04:20:11;13.20;85.90
31675;DHT22;18276;45.520;11.018;2022-11-09T04:22:38;13.20;85.60
31675;DHT22;18276;45.520;11.018;2022-11-09T04:25:05;13.20;85.50
31675;DHT22;18276;45.520;11.018;2022-11-09T04:27:32;13.10;85.50
31675;DHT22;18276;45.520;11.018;2022-11-09T04:29:59;13.10;85.50
31675;DHT22;18276;45.520;11.018;2022-11-09T04:32:26;13.10;85.60
31675;DHT22;18276;45.520;11.018;2022-11-09T04:34:53;13.10;85.70
31675;DHT22;18276;45.520;11.018;2022-11-09T04:37:20;13.10;85.80
31675;DHT22;18276;45.520;11.018;2022-11-09T04:39:47;13.10;85.80
31675;DHT22;18276;45.520;11.018;2022-11-09T04:42:14;13.10;85.70
31675;DHT22;18276;45.520;11.018;2022-11-09T04:44:41;13.10;85.70
31675;DHT22;18276;45.520;11.018;2022-11-09T04:47:09;13.20;85.80
31675;DHT22;18276;45.520;11.018;2022-11-09T04:49:36;13.20;85.80
31675;DHT22;18276;45.520;11.018;2022-11-09T04:52:04;13.20;85.80
31675;DHT22;18276;45.520;11.018;2022-11-09T04:54:31;13.20;85.80
31675;DHT22;18276;45.520;11.018;2022-11-09T04:56:59;13.10;85.70
31675;DHT22;18276;45.520;11.018;2022-11-09T04:59:26;13.10;85.80
31675;DHT22;18276;45.520;11.018;2022-11-09T05:01:53;13.20;85.80
31675;DHT22;18276;45.520;11.018;2022-11-09T05:04:20;13.10;85.70
31675;DHT22;18276;45.520;11.018;2022-11-09T05:06:47;13.20;85.70
31675;DHT22;18276;45.520;11.018;2022-11-09T05:09:14;13.20;85.60
31675;DHT22;18276;45.520;11.018;2022-11-09T05:11:42;13.20;85.60
31675;DHT22;18276;45.520;11.018;2022-11-09T05:14:09;13.20;85.60
31675;DHT22;18276;45.520;11.018;2022-11-09T05:16:37;13.20;85.60
31675;DHT22;18276;45.520;11.018;2022-11-09T05:19:04;13.20;85.70
31675;DHT22;18276;45.520;11.018;2022-11-09T05:21:31;13.20;85.90
31675;DHT22;18276;45.520;11.018;2022-11-09T05:23:58;13.20;85.90
31675;DHT22;18276;45.520;11.018;2022-11-09T05:26:33;13.20;85.90
31675;DHT22;18276;45.520;11.018;2022-11-09T05:29:04;13.20;85.90
31675;DHT22;18276;45.520;11.018;2022-11-09T05:31:32;13.20;85.90
31675;DHT22;18276;45.520;11.018;2022-11-09T05:34:00;13.20;86.00
31675;DHT22;18276;45.520;11.018;2022-11-09T05:36:28;13.10;86.00
31675;DHT22;18276;45.520;11.018;2022-11-09T05:38:56;13.20;86.90
31675;DHT22;18276;45.520;11.018;2022-11-09T05:41:23;13.20;86.20
31675;DHT22;18276;45.520;11.018;2022-11-09T05:43:51;13.10;86.30
31675;DHT22;18276;45.520;11.018;2022-11-09T05:46:18;13.20;86.40
31675;DHT22;18276;45.520;11.018;2022-11-09T05:48:45;13.20;86.50
31675;DHT22;18276;45.520;11.018;2022-11-09T05:51:13;13.20;86.50
31675;DHT22;18276;45.520;11.018;2022-11-09T05:53:41;13.20;86.40
31675;DHT22;18276;45.520;11.018;2022-11-09T05:56:13;13.20;86.30
31675;DHT22;18276;45.520;11.018;2022-11-09T05:58:41;13.20;86.20
31675;DHT22;18276;45.520;11.018;2022-11-09T06:01:10;13.20;86.20
31675;DHT22;18276;45.520;11.018;2022-11-09T06:03:38;13.20;86.20
31675;DHT22;18276;45.520;11.018;2022-11-09T06:06:07;13.30;86.10
31675;DHT22;18276;45.520;11.018;2022-11-09T06:08:36;13.30;86.00
31675;DHT22;18276;45.520;11.018;2022-11-09T06:11:06;13.30;86.00
31675;DHT22;18276;45.520;11.018;2022-11-09T06:13:33;13.30;86.20
31675;DHT22;18276;45.520;11.018;2022-11-09T06:16:02;13.30;86.30
31675;DHT22;18276;45.520;11.018;2022-11-09T06:18:31;13.30;86.40
31675;DHT22;18276;45.520;11.018;2022-11-09T06:21:01;13.30;86.50
31675;DHT22;18276;45.520;11.018;2022-11-09T06:23:28;13.30;86.50
31675;DHT22;18276;45.520;11.018;2022-11-09T06:26:01;13.30;86.50
31675;DHT22;18276;45.520;11.018;2022-11-09T06:28:29;13.30;86.60
31675;DHT22;18276;45.520;11.018;2022-11-09T06:30:57;13.30;86.60
31675;DHT22;18276;45.520;11.018;2022-11-09T06:33:24;13.30;86.70
31675;DHT22;18276;45.520;11.018;2022-11-09T06:35:52;13.30;86.70
31675;DHT22;18276;45.520;11.018;2022-11-09T06:38:23;13.30;86.90
31675;DHT22;18276;45.520;11.018;2022-11-09T06:40:53;13.30;86.90
31675;DHT22;18276;45.520;11.018;2022-11-09T06:43:21;13.30;86.80
31675;DHT22;18276;45.520;11.018;2022-11-09T06:45:48;13.40;86.90
31675;DHT22;18276;45.520;11.018;2022-11-09T06:48:16;13.30;86.90
31675;DHT22;18276;45.520;11.018;2022-11-09T06:50:43;13.30;87.00
31675;DHT22;18276;45.520;11.018;2022-11-09T06:53:12;13.30;87.00
31675;DHT22;18276;45.520;11.018;2022-11-09T06:55:40;13.30;87.10
31675;DHT22;18276;45.520;11.018;2022-11-09T06:58:14;13.30;87.30
31675;DHT22;18276;45.520;11.018;2022-11-09T07:00:43;13.40;87.40
31675;DHT22;18276;45.520;11.018;2022-11-09T07:03:20;13.50;87.30
31675;DHT22;18276;45.520;11.018;2022-11-09T07:05:49;13.50;87.10
31675;DHT22;18276;45.520;11.018;2022-11-09T07:08:17;13.60;86.80
31675;DHT22;18276;45.520;11.018;2022-11-09T07:10:44;13.60;86.40
31675;DHT22;18276;45.520;11.018;2022-11-09T07:13:11;13.70;86.10
31675;DHT22;18276;45.520;11.018;2022-11-09T07:15:38;13.70;85.90
31675;DHT22;18276;45.520;11.018;2022-11-09T07:18:09;13.70;85.70
31675;DHT22;18276;45.520;11.018;2022-11-09T07:20:37;13.70;85.60
31675;DHT22;18276;45.520;11.018;2022-11-09T07:23:04;13.70;85.50
31675;DHT22;18276;45.520;11.018;2022-11-09T07:25:31;13.70;85.60
31675;DHT22;18276;45.520;11.018;2022-11-09T07:28:06;13.70;85.80
31675;DHT22;18276;45.520;11.018;2022-11-09T07:30:35;13.70;85.70
31675;DHT22;18276;45.520;11.018;2022-11-09T07:33:15;13.70;85.70
31675;DHT22;18276;45.520;11.018;2022-11-09T07:35:46;13.80;85.60
31675;DHT22;18276;45.520;11.018;2022-11-09T07:38:14;13.90;85.40
31675;DHT22;18276;45.520;11.018;2022-11-09T07:40:45;14.00;85.10
31675;DHT22;18276;45.520;11.018;2022-11-09T07:43:12;14.20;84.70
31675;DHT22;18276;45.520;11.018;2022-11-09T07:45:41;14.30;84.00
31675;DHT22;18276;45.520;11.018;2022-11-09T07:48:09;14.30;83.70
31675;DHT22;18276;45.520;11.018;2022-11-09T07:50:38;14.20;83.30
31675;DHT22;18276;45.520;11.018;2022-11-09T07:53:06;14.10;83.40
31675;DHT22;18276;45.520;11.018;2022-11-09T07:55:34;14.10;83.50
31675;DHT22;18276;45.520;11.018;2022-11-09T07:58:06;14.10;83.50
31675;DHT22;18276;45.520;11.018;2022-11-09T08:00:35;14.10;83.50
31675;DHT22;18276;45.520;11.018;2022-11-09T08:03:03;14.10;83.80
31675;DHT22;18276;45.520;11.018;2022-11-09T08:05:30;14.00;84.10
31675;DHT22;18276;45.520;11.018;2022-11-09T08:07:59;14.00;84.40
31675;DHT22;18276;45.520;11.018;2022-11-09T08:10:28;14.00;84.70
31675;DHT22;18276;45.520;11.018;2022-11-09T08:12:57;14.00;84.90
31675;DHT22;18276;45.520;11.018;2022-11-09T08:15:25;14.00;84.90
31675;DHT22;18276;45.520;11.018;2022-11-09T08:17:53;14.00;84.80
31675;DHT22;18276;45.520;11.018;2022-11-09T08:20:20;14.00;84.90
31675;DHT22;18276;45.520;11.018;2022-11-09T08:22:47;14.10;85.00
31675;DHT22;18276;45.520;11.018;2022-11-09T08:25:14;14.10;84.80
31675;DHT22;18276;45.520;11.018;2022-11-09T08:27:42;14.20;84.40
31675;DHT22;18276;45.520;11.018;2022-11-09T08:30:13;14.30;84.10
31675;DHT22;18276;45.520;11.018;2022-11-09T08:32:41;14.30;84.10
31675;DHT22;18276;45.520;11.018;2022-11-09T08:35:10;14.40;83.60
31675;DHT22;18276;45.520;11.018;2022-11-09T08:37:38;14.40;82.90
31675;DHT22;18276;45.520;11.018;2022-11-09T08:40:06;14.40;82.70
31675;DHT22;18276;45.520;11.018;2022-11-09T08:42:33;14.50;82.50
31675;DHT22;18276;45.520;11.018;2022-11-09T08:45:00;14.50;82.20
31675;DHT22;18276;45.520;11.018;2022-11-09T08:47:28;14.60;82.20
31675;DHT22;18276;45.520;11.018;2022-11-09T08:49:55;14.50;81.80
31675;DHT22;18276;45.520;11.018;2022-11-09T08:52:22;14.50;81.90
31675;DHT22;18276;45.520;11.018;2022-11-09T08:54:49;14.40;82.10
31675;DHT22;18276;45.520;11.018;2022-11-09T08:57:17;14.40;82.30
31675;DHT22;18276;45.520;11.018;2022-11-09T08:59:45;14.30;82.40
31675;DHT22;18276;45.520;11.018;2022-11-09T09:02:13;14.20;82.40
31675;DHT22;18276;45.520;11.018;2022-11-09T09:04:40;14.20;82.70
31675;DHT22;18276;45.520;11.018;2022-11-09T09:07:08;14.20;82.90
31675;DHT22;18276;45.520;11.018;2022-11-09T09:09:35;14.30;82.80
31675;DHT22;18276;45.520;11.018;2022-11-09T09:12:07;14.40;82.50
31675;DHT22;18276;45.520;11.018;2022-11-09T09:14:35;14.40;82.10
31675;DHT22;18276;45.520;11.018;2022-11-09T09:17:02;14.50;82.20
31675;DHT22;18276;45.520;11.018;2022-11-09T09:19:30;14.60;81.90
31675;DHT22;18276;45.520;11.018;2022-11-09T09:21:59;14.60;81.80
31675;DHT22;18276;45.520;11.018;2022-11-09T09:24:27;14.70;81.80
31675;DHT22;18276;45.520;11.018;2022-11-09T09:26:54;14.80;81.60
31675;DHT22;18276;45.520;11.018;2022-11-09T09:29:21;14.80;81.60
31675;DHT22;18276;45.520;11.018;2022-11-09T09:31:48;14.90;81.50
31675;DHT22;18276;45.520;11.018;2022-11-09T09:34:16;15.10;81.30
31675;DHT22;18276;45.520;11.018;2022-11-09T09:36:43;15.50;80.50
31675;DHT22;18276;45.520;11.018;2022-11-09T09:39:14;15.70;79.50
31675;DHT22;18276;45.520;11.018;2022-11-09T09:41:53;15.80;78.60
31675;DHT22;18276;45.520;11.018;2022-11-09T09:44:27;15.70;78.20
31675;DHT22;18276;45.520;11.018;2022-11-09T09:50:02;15.30;78.50
31675;DHT22;18276;45.520;11.018;2022-11-09T09:55:16;15.00;79.80
31675;DHT22;18276;45.520;11.018;2022-11-09T09:57:49;14.90;80.20
31675;DHT22;18276;45.520;11.018;2022-11-09T10:00:24;14.90;80.20
31675;DHT22;18276;45.520;11.018;2022-11-09T10:02:52;14.90;80.20
31675;DHT22;18276;45.520;11.018;2022-11-09T10:05:20;15.00;80.30
31675;DHT22;18276;45.520;11.018;2022-11-09T10:08:12;15.10;80.10
31675;DHT22;18276;45.520;11.018;2022-11-09T10:10:42;15.20;79.80
31675;DHT22;18276;45.520;11.018;2022-11-09T10:26:51;14.40;80.90
31675;DHT22;18276;45.520;11.018;2022-11-09T10:29:21;14.30;81.50
31675;DHT22;18276;45.520;11.018;2022-11-09T10:31:54;14.20;82.00
31675;DHT22;18276;45.520;11.018;2022-11-09T10:34:29;14.20;82.50
31675;DHT22;18276;45.520;11.018;2022-11-09T10:37:04;14.20;82.70
31675;DHT22;18276;45.520;11.018;2022-11-09T10:39:43;14.20;83.10
31675;DHT22;18276;45.520;11.018;2022-11-09T10:42:30;14.30;83.20
31675;DHT22;18276;45.520;11.018;2022-11-09T10:48:12;14.50;82.80
31675;DHT22;18276;45.520;11.018;2022-11-09T10:50:58;14.50;82.50
31675;DHT22;18276;45.520;11.018;2022-11-09T10:53:44;14.70;82.20
31675;DHT22;18276;45.520;11.018;2022-11-09T10:56:29;14.90;82.00
31675;DHT22;18276;45.520;11.018;2022-11-09T10:59:55;15.60;82.00
31675;DHT22;18276;45.520;11.018;2022-11-09T11:02:43;16.90;79.00
31675;DHT22;18276;45.520;11.018;2022-11-09T11:05:30;17.50;75.70
31675;DHT22;18276;45.520;11.018;2022-11-09T11:11:20;17.60;72.90
31675;DHT22;18276;45.520;11.018;2022-11-09T11:17:28;17.30;73.10
31675;DHT22;18276;45.520;11.018;2022-11-09T11:20:24;17.10;73.40
31675;DHT22;18276;45.520;11.018;2022-11-09T11:23:15;16.90;73.70
31675;DHT22;18276;45.520;11.018;2022-11-09T11:26:30;16.70;73.90
31675;DHT22;18276;45.520;11.018;2022-11-09T11:32:06;16.30;74.80
31675;DHT22;18276;45.520;11.018;2022-11-09T11:34:53;16.30;75.40
31675;DHT22;18276;45.520;11.018;2022-11-09T11:47:30;16.00;76.30
31675;DHT22;18276;45.520;11.018;2022-11-09T11:56:37;15.60;77.50
31675;DHT22;18276;45.520;11.018;2022-11-09T12:03:49;15.10;79.30
31675;DHT22;18276;45.520;11.018;2022-11-09T12:13:30;14.70;81.30
31675;DHT22;18276;45.520;11.018;2022-11-09T12:16:29;14.70;81.70
31675;DHT22;18276;45.520;11.018;2022-11-09T12:22:48;14.60;82.30
31675;DHT22;18276;45.520;11.018;2022-11-09T12:25:43;14.70;82.30
31675;DHT22;18276;45.520;11.018;2022-11-09T12:35:03;14.70;82.70
31675;DHT22;18276;45.520;11.018;2022-11-09T12:38:16;14.80;82.90
31675;DHT22;18276;45.520;11.018;2022-11-09T12:41:14;14.70;83.20
31675;DHT22;18276;45.520;11.018;2022-11-09T12:44:10;14.70;83.60
31675;DHT22;18276;45.520;11.018;2022-11-09T12:47:18;14.70;84.30
31675;DHT22;18276;45.520;11.018;2022-11-09T12:50:15;14.70;84.60
31675;DHT22;18276;45.520;11.018;2022-11-09T12:53:02;14.60;84.70
31675;DHT22;18276;45.520;11.018;2022-11-09T12:55:51;14.50;85.20
31675;DHT22;18276;45.520;11.018;2022-11-09T12:58:38;14.50;85.70
31675;DHT22;18276;45.520;11.018;2022-11-09T13:04:21;14.50;86.30
31675;DHT22;18276;45.520;11.018;2022-11-09T13:07:15;14.50;86.50
31675;DHT22;18276;45.520;11.018;2022-11-09T13:10:01;14.50;86.90
31675;DHT22;18276;45.520;11.018;2022-11-09T13:12:47;14.50;86.90
31675;DHT22;18276;45.520;11.018;2022-11-09T13:15:33;14.50;87.00
31675;DHT22;18276;45.520;11.018;2022-11-09T13:18:54;14.50;87.30
31675;DHT22;18276;45.520;11.018;2022-11-09T13:21:39;14.60;87.80
31675;DHT22;18276;45.520;11.018;2022-11-09T13:27:36;14.70;88.70
31675;DHT22;18276;45.520;11.018;2022-11-09T13:33:21;14.80;89.20
31675;DHT22;18276;45.520;11.018;2022-11-09T13:42:28;14.80;89.90
31675;DHT22;18276;45.520;11.018;2022-11-09T13:48:35;14.80;90.00
31675;DHT22;18276;45.520;11.018;2022-11-09T13:54:28;14.90;90.10
31675;DHT22;18276;45.520;11.018;2022-11-09T13:57:13;14.90;90.10
31675;DHT22;18276;45.520;11.018;2022-11-09T14:00:03;14.90;90.20
31675;DHT22;18276;45.520;11.018;2022-11-09T14:05:58;14.90;90.30
31675;DHT22;18276;45.520;11.018;2022-11-09T14:08:45;14.80;90.40
31675;DHT22;18276;45.520;11.018;2022-11-09T14:12:07;14.80;90.50
31675;DHT22;18276;45.520;11.018;2022-11-09T14:15:26;14.70;90.60
31675;DHT22;18276;45.520;11.018;2022-11-09T14:24:23;14.60;91.10
31675;DHT22;18276;45.520;11.018;2022-11-09T14:27:15;14.60;91.30
31675;DHT22;18276;45.520;11.018;2022-11-09T14:30:01;14.50;91.50
31675;DHT22;18276;45.520;11.018;2022-11-09T14:32:52;14.50;91.70
31675;DHT22;18276;45.520;11.018;2022-11-09T14:35:40;14.50;91.90
31675;DHT22;18276;45.520;11.018;2022-11-09T14:38:33;14.40;92.10
31675;DHT22;18276;45.520;11.018;2022-11-09T14:41:21;14.40;92.50
31675;DHT22;18276;45.520;11.018;2022-11-09T14:44:19;14.50;92.70
31675;DHT22;18276;45.520;11.018;2022-11-09T14:47:27;14.50;92.90
31675;DHT22;18276;45.520;11.018;2022-11-09T14:50:23;14.50;93.20
31675;DHT22;18276;45.520;11.018;2022-11-09T14:53:25;14.50;93.50
31675;DHT22;18276;45.520;11.018;2022-11-09T14:56:16;14.50;93.80
31675;DHT22;18276;45.520;11.018;2022-11-09T14:59:11;14.50;94.20
31675;DHT22;18276;45.520;11.018;2022-11-09T15:02:18;14.50;94.60
31675;DHT22;18276;45.520;11.018;2022-11-09T15:05:05;14.60;95.00
31675;DHT22;18276;45.520;11.018;2022-11-09T15:07:52;14.50;95.30
31675;DHT22;18276;45.520;11.018;2022-11-09T15:10:37;14.50;95.80
31675;DHT22;18276;45.520;11.018;2022-11-09T15:16:22;14.50;97.00
31675;DHT22;18276;45.520;11.018;2022-11-09T15:19:29;14.50;98.00
31675;DHT22;18276;45.520;11.018;2022-11-09T15:28:26;14.40;99.90
31675;DHT22;18276;45.520;11.018;2022-11-09T15:31:14;14.40;99.90
31675;DHT22;18276;45.520;11.018;2022-11-09T15:34:00;14.40;99.90
31675;DHT22;18276;45.520;11.018;2022-11-09T15:36:55;14.40;99.90
31675;DHT22;18276;45.520;11.018;2022-11-09T15:39:40;14.40;99.90
31675;DHT22;18276;45.520;11.018;2022-11-09T15:42:26;14.30;99.90
31675;DHT22;18276;45.520;11.018;2022-11-09T15:45:17;14.10;99.90
31675;DHT22;18276;45.520;11.018;2022-11-09T15:48:03;14.00;99.90
31675;DHT22;18276;45.520;11.018;2022-11-09T15:50:49;13.80;99.90
31675;DHT22;18276;45.520;11.018;2022-11-09T15:53:34;13.80;99.90
31675;DHT22;18276;45.520;11.018;2022-11-09T15:56:22;13.70;99.90
31675;DHT22;18276;45.520;11.018;2022-11-09T15:59:23;13.70;99.90
31675;DHT22;18276;45.520;11.018;2022-11-09T16:02:09;13.70;99.90
31675;DHT22;18276;45.520;11.018;2022-11-09T16:04:55;13.60;99.90
31675;DHT22;18276;45.520;11.018;2022-11-09T16:07:48;13.60;99.90
31675;DHT22;18276;45.520;11.018;2022-11-09T16:10:34;13.60;99.90
31675;DHT22;18276;45.520;11.018;2022-11-09T16:13:24;13.70;99.90
31675;DHT22;18276;45.520;11.018;2022-11-09T16:16:11;13.70;99.90
31675;DHT22;18276;45.520;11.018;2022-11-09T16:18:58;13.70;99.90
31675;DHT22;18276;45.520;11.018;2022-11-09T16:21:43;13.80;99.90
31675;DHT22;18276;45.520;11.018;2022-11-09T16:24:29;13.80;99.90
31675;DHT22;18276;45.520;11.018;2022-11-09T16:27:14;13.80;99.90
31675;DHT22;18276;45.520;11.018;2022-11-09T16:30:20;13.80;99.90
31675;DHT22;18276;45.520;11.018;2022-11-09T16:33:06;13.80;99.90
31675;DHT22;18276;45.520;11.018;2022-11-09T16:35:53;13.80;99.90
31675;DHT22;18276;45.520;11.018;2022-11-09T16:38:44;13.80;99.90
31675;DHT22;18276;45.520;11.018;2022-11-09T16:41:30;13.80;99.90
31675;DHT22;18276;45.520;11.018;2022-11-09T16:44:18;13.80;99.90
31675;DHT22;18276;45.520;11.018;2022-11-09T16:47:07;13.80;99.90
31675;DHT22;18276;45.520;11.018;2022-11-09T16:49:53;13.80;99.90
31675;DHT22;18276;45.520;11.018;2022-11-09T16:52:39;13.80;99.90
31675;DHT22;18276;45.520;11.018;2022-11-09T16:55:25;13.90;99.90
31675;DHT22;18276;45.520;11.018;2022-11-09T16:58:11;13.90;99.90
31675;DHT22;18276;45.520;11.018;2022-11-09T17:00:57;13.90;99.90
31675;DHT22;18276;45.520;11.018;2022-11-09T17:04:02;13.90;99.90
31675;DHT22;18276;45.520;11.018;2022-11-09T17:06:48;13.90;99.90
31675;DHT22;18276;45.520;11.018;2022-11-09T17:09:34;13.90;99.90
31675;DHT22;18276;45.520;11.018;2022-11-09T17:12:20;13.90;99.90
31675;DHT22;18276;45.520;11.018;2022-11-09T17:15:05;13.90;99.90
31675;DHT22;18276;45.520;11.018;2022-11-09T17:17:51;14.00;99.90
31675;DHT22;18276;45.520;11.018;2022-11-09T17:20:44;14.00;99.90
31675;DHT22;18276;45.520;11.018;2022-11-09T17:23:30;14.00;99.90
31675;DHT22;18276;45.520;11.018;2022-11-09T17:26:17;13.90;99.90
31675;DHT22;18276;45.520;11.018;2022-11-09T17:29:03;13.90;99.90
31675;DHT22;18276;45.520;11.018;2022-11-09T17:31:49;13.80;99.90
31675;DHT22;18276;45.520;11.018;2022-11-09T17:34:34;13.70;99.90
31675;DHT22;18276;45.520;11.018;2022-11-09T17:37:20;13.50;99.90
31675;DHT22;18276;45.520;11.018;2022-11-09T17:40:06;13.40;99.90
31675;DHT22;18276;45.520;11.018;2022-11-09T17:42:51;13.20;99.90
31675;DHT22;18276;45.520;11.018;2022-11-09T17:45:37;13.10;99.90
31675;DHT22;18276;45.520;11.018;2022-11-09T17:48:22;13.00;99.90
31675;DHT22;18276;45.520;11.018;2022-11-09T17:51:09;13.00;99.90
31675;DHT22;18276;45.520;11.018;2022-11-09T17:53:54;12.90;99.90
31675;DHT22;18276;45.520;11.018;2022-11-09T18:09:03;12.80;99.90
31675;DHT22;18276;45.520;11.018;2022-11-09T18:12:09;13.60;99.90